createdAt,value
2023-02-11T00:00:49.692Z,1026
2023-02-11T00:02:05.876Z,1025.9
2023-02-11T00:03:22.076Z,1025.9
2023-02-11T00:04:38.251Z,1025.9
2023-02-11T00:05:54.436Z,1025.9
2023-02-11T00:07:10.627Z,1026
2023-02-11T00:08:26.828Z,1025.9
2023-02-11T00:09:43.008Z,1025.9
2023-02-11T00:10:59.203Z,1025.9
2023-02-11T00:12:15.382Z,1025.9
2023-02-11T00:13:30.595Z,1025.9
2023-02-11T00:14:46.984Z,1026
2023-02-11T00:16:03.163Z,1026
2023-02-11T00:17:19.157Z,1026
2023-02-11T00:18:35.550Z,1026.1
2023-02-11T00:19:51.536Z,1026.1
2023-02-11T00:21:07.916Z,1026.1
2023-02-11T00:22:24.113Z,1026.1
2023-02-11T00:23:40.108Z,1026.2
2023-02-11T00:24:56.296Z,1026.2
2023-02-11T00:26:12.493Z,1026.3
2023-02-11T00:27:28.859Z,1026.3
2023-02-11T00:28:44.861Z,1026.2
2023-02-11T00:30:00.247Z,1026.2
2023-02-11T00:31:16.252Z,1026.2
2023-02-11T00:32:32.455Z,1026.2
2023-02-11T00:33:48.633Z,1026.1
2023-02-11T00:35:04.832Z,1026
2023-02-11T00:36:21.009Z,1025.9
2023-02-11T00:37:37.197Z,1025.9
2023-02-11T00:38:53.393Z,1025.8
2023-02-11T00:40:09.593Z,1025.8
2023-02-11T00:41:25.776Z,1025.8
2023-02-11T00:42:42.156Z,1025.8
2023-02-11T00:43:58.154Z,1025.9
2023-02-11T00:45:14.343Z,1025.8
2023-02-11T00:46:29.539Z,1025.8
2023-02-11T00:47:45.731Z,1025.7
2023-02-11T00:49:02.000Z,1025.8
2023-02-11T00:50:18.301Z,1025.9
2023-02-11T00:51:34.492Z,1025.8
2023-02-11T00:52:50.501Z,1025.9
2023-02-11T00:54:05.698Z,1025.9
2023-02-11T00:55:21.900Z,1025.9
2023-02-11T00:56:38.073Z,1025.9
2023-02-11T00:57:54.275Z,1026
2023-02-11T00:59:10.629Z,1025.9
2023-02-11T01:00:26.644Z,1026
2023-02-11T01:01:42.839Z,1025.9
2023-02-11T01:02:59.033Z,1026
2023-02-11T01:04:15.222Z,1025.9
2023-02-11T01:05:31.400Z,1026
2023-02-11T01:06:47.591Z,1025.9
2023-02-11T01:08:03.774Z,1025.9
2023-02-11T01:09:19.964Z,1025.8
2023-02-11T01:10:35.180Z,1025.8
2023-02-11T01:11:51.359Z,1025.7
2023-02-11T01:13:07.560Z,1025.6
2023-02-11T01:14:23.925Z,1025.6
2023-02-11T01:15:40.115Z,1025.6
2023-02-11T01:16:56.125Z,1025.6
2023-02-11T01:18:12.322Z,1025.5
2023-02-11T01:19:28.507Z,1025.4
2023-02-11T01:20:44.700Z,1025.4
2023-02-11T01:22:00.881Z,1025.3
2023-02-11T01:23:17.069Z,1025.3
2023-02-11T01:24:33.443Z,1025.2
2023-02-11T01:25:49.456Z,1025.2
2023-02-11T01:27:04.650Z,1025.1
2023-02-11T01:28:20.844Z,1025.2
2023-02-11T01:29:37.211Z,1025.1
2023-02-11T01:30:53.401Z,1025.2
2023-02-11T01:32:09.578Z,1025.2
2023-02-11T01:33:25.591Z,1025.2
2023-02-11T01:34:41.784Z,1025.2
2023-02-11T01:35:57.972Z,1025.2
2023-02-11T01:37:14.174Z,1025.2
2023-02-11T01:38:30.365Z,1025.1
2023-02-11T01:39:46.550Z,1025.1
2023-02-11T01:41:02.728Z,1025.1
2023-02-11T01:42:19.097Z,1025.1
2023-02-11T01:43:34.137Z,1025
2023-02-11T01:44:50.308Z,1025
2023-02-11T01:46:06.503Z,1025
2023-02-11T01:47:22.690Z,1025
2023-02-11T01:48:38.886Z,1025
2023-02-11T01:49:55.085Z,1025.1
2023-02-11T01:51:11.271Z,1025.1
2023-02-11T01:52:27.451Z,1025.1
2023-02-11T01:53:43.649Z,1025.1
2023-02-11T01:54:59.995Z,1025
2023-02-11T01:56:16.190Z,1025
2023-02-11T01:57:32.209Z,1025.1
2023-02-11T01:58:48.401Z,1025
2023-02-11T02:00:03.605Z,1025
2023-02-11T02:01:19.803Z,1025
2023-02-11T02:02:35.987Z,1025
2023-02-11T02:03:52.173Z,1025
2023-02-11T02:05:08.359Z,1024.9
2023-02-11T02:06:24.558Z,1024.8
2023-02-11T02:07:40.896Z,1024.9
2023-02-11T02:08:56.926Z,1024.9
2023-02-11T02:10:13.114Z,1025
2023-02-11T02:11:29.311Z,1025
2023-02-11T02:12:45.489Z,1025
2023-02-11T02:14:01.679Z,1025
2023-02-11T02:15:17.875Z,1024.8
2023-02-11T02:16:33.088Z,1024.8
2023-02-11T02:17:49.272Z,1024.9
2023-02-11T02:19:05.456Z,1025
2023-02-11T02:20:21.656Z,1024.9
2023-02-11T02:21:37.992Z,1024.9
2023-02-11T02:22:54.193Z,1024.9
2023-02-11T02:24:10.206Z,1024.9
2023-02-11T02:25:26.408Z,1024.9
2023-02-11T02:26:42.599Z,1024.9
2023-02-11T02:27:58.951Z,1024.9
2023-02-11T02:29:14.961Z,1024.8
2023-02-11T02:30:31.309Z,1024.9
2023-02-11T02:31:47.354Z,1024.8
2023-02-11T02:33:02.545Z,1024.8
2023-02-11T02:34:18.740Z,1024.8
2023-02-11T02:35:34.941Z,1024.7
2023-02-11T02:36:51.275Z,1024.7
2023-02-11T02:38:07.462Z,1024.7
2023-02-11T02:39:23.507Z,1024.7
2023-02-11T02:40:39.686Z,1024.7
2023-02-11T02:41:55.884Z,1024.6
2023-02-11T02:43:12.225Z,1024.6
2023-02-11T02:44:28.265Z,1024.6
2023-02-11T02:45:44.599Z,1024.6
2023-02-11T02:47:00.631Z,1024.6
2023-02-11T02:48:16.820Z,1024.7
2023-02-11T02:49:32.177Z,1024.6
2023-02-11T02:50:48.374Z,1024.7
2023-02-11T02:52:04.413Z,1024.7
2023-02-11T02:53:20.604Z,1024.7
2023-02-11T02:54:36.778Z,1024.6
2023-02-11T02:55:52.970Z,1024.5
2023-02-11T02:57:09.306Z,1024.5
2023-02-11T02:58:25.514Z,1024.4
2023-02-11T02:59:41.699Z,1024.4
2023-02-11T03:00:57.890Z,1024.4
2023-02-11T03:02:13.926Z,1024.4
2023-02-11T03:03:30.111Z,1024.4
2023-02-11T03:04:46.291Z,1024.3
2023-02-11T03:06:01.509Z,1024.4
2023-02-11T03:07:17.692Z,1024.4
2023-02-11T03:08:33.879Z,1024.4
2023-02-11T03:09:50.076Z,1024.3
2023-02-11T03:11:06.405Z,1024.3
2023-02-11T03:12:22.454Z,1024.3
2023-02-11T03:13:38.630Z,1024.3
2023-02-11T03:14:54.818Z,1024.4
2023-02-11T03:16:11.006Z,1024.3
2023-02-11T03:17:27.198Z,1024.3
2023-02-11T03:18:43.392Z,1024.4
2023-02-11T03:19:59.588Z,1024.4
2023-02-11T03:21:15.780Z,1024.4
2023-02-11T03:22:30.971Z,1024.3
2023-02-11T03:23:47.158Z,1024.3
2023-02-11T03:25:03.505Z,1024.3
2023-02-11T03:26:19.544Z,1024.3
2023-02-11T03:27:35.722Z,1024.2
2023-02-11T03:28:51.920Z,1024.3
2023-02-11T03:30:08.109Z,1024.2
2023-02-11T03:31:24.438Z,1024.3
2023-02-11T03:32:40.493Z,1024.3
2023-02-11T03:33:56.688Z,1024.3
2023-02-11T03:35:12.861Z,1024.3
2023-02-11T03:36:29.195Z,1024.3
2023-02-11T03:37:45.382Z,1024.4
2023-02-11T03:39:00.457Z,1024.4
2023-02-11T03:40:16.645Z,1024.3
2023-02-11T03:41:32.838Z,1024.4
2023-02-11T03:42:49.022Z,1024.3
2023-02-11T03:44:05.217Z,1024.4
2023-02-11T03:45:21.388Z,1024.4
2023-02-11T03:46:37.734Z,1024.4
2023-02-11T03:47:53.770Z,1024.4
2023-02-11T03:49:09.963Z,1024.4
2023-02-11T03:50:26.286Z,1024.5
2023-02-11T03:51:42.350Z,1024.3
2023-02-11T03:52:58.524Z,1024.3
2023-02-11T03:54:14.718Z,1024.4
2023-02-11T03:55:29.935Z,1024.3
2023-02-11T03:56:46.110Z,1024.2
2023-02-11T03:58:02.304Z,1024.2
2023-02-11T03:59:18.485Z,1024.3
2023-02-11T04:00:34.684Z,1024.3
2023-02-11T04:01:51.016Z,1024.3
2023-02-11T04:03:07.200Z,1024.3
2023-02-11T04:04:23.253Z,1024.1
2023-02-11T04:05:39.447Z,1024.1
2023-02-11T04:06:55.624Z,1024.1
2023-02-11T04:08:11.821Z,1024.2
2023-02-11T04:09:28.140Z,1024.2
2023-02-11T04:10:44.184Z,1024.2
2023-02-11T04:11:59.535Z,1024.2
2023-02-11T04:13:15.592Z,1024.3
2023-02-11T04:14:31.906Z,1024.3
2023-02-11T04:15:47.973Z,1024.3
2023-02-11T04:17:04.303Z,1024.3
2023-02-11T04:18:20.345Z,1024.3
2023-02-11T04:19:36.533Z,1024.3
2023-02-11T04:20:52.715Z,1024.2
2023-02-11T04:22:09.041Z,1024.2
2023-02-11T04:23:25.093Z,1024.2
2023-02-11T04:24:41.430Z,1024.2
2023-02-11T04:25:57.621Z,1024.2
2023-02-11T04:27:13.675Z,1024.2
2023-02-11T04:28:29.014Z,1024.1
2023-02-11T04:29:45.205Z,1024.2
2023-02-11T04:31:01.388Z,1024.2
2023-02-11T04:32:17.444Z,1024.2
2023-02-11T04:33:33.623Z,1024.1
2023-02-11T04:34:49.826Z,1024.2
2023-02-11T04:36:06.016Z,1024.2
2023-02-11T04:37:22.341Z,1024.1
2023-02-11T04:38:38.388Z,1024.1
2023-02-11T04:39:54.570Z,1024.1
2023-02-11T04:41:10.755Z,1024.1
2023-02-11T04:42:27.091Z,1024
2023-02-11T04:43:43.140Z,1024
2023-02-11T04:44:58.490Z,1023.9
2023-02-11T04:46:14.545Z,1024
2023-02-11T04:47:30.859Z,1024
2023-02-11T04:48:47.052Z,1024
2023-02-11T04:50:03.111Z,1024
2023-02-11T04:51:19.287Z,1023.9
2023-02-11T04:52:35.480Z,1024
2023-02-11T04:53:51.798Z,1023.9
2023-02-11T04:55:07.991Z,1023.9
2023-02-11T04:56:24.060Z,1024
2023-02-11T04:57:40.236Z,1024
2023-02-11T04:58:56.419Z,1023.9
2023-02-11T05:00:12.623Z,1023.9
2023-02-11T05:01:27.951Z,1023.8
2023-02-11T05:02:44.137Z,1023.7
2023-02-11T05:04:00.198Z,1023.7
2023-02-11T05:05:16.392Z,1023.8
2023-02-11T05:06:32.578Z,1023.8
2023-02-11T05:07:48.896Z,1023.7
2023-02-11T05:09:03.976Z,1023.7
2023-02-11T05:10:20.304Z,1023.7
2023-02-11T05:11:36.361Z,1023.7
2023-02-11T05:12:52.551Z,1023.7
2023-02-11T05:14:08.852Z,1023.7
2023-02-11T05:15:24.916Z,1023.6
2023-02-11T05:16:41.103Z,1023.6
2023-02-11T05:17:57.436Z,1023.5
2023-02-11T05:19:13.493Z,1023.4
2023-02-11T05:20:29.687Z,1023.5
2023-02-11T05:21:45.986Z,1023.5
2023-02-11T05:23:02.057Z,1023.4
2023-02-11T05:24:18.253Z,1023.4
2023-02-11T05:25:33.582Z,1023.4
2023-02-11T05:26:49.646Z,1023.4
2023-02-11T05:28:05.829Z,1023.4
2023-02-11T05:29:22.017Z,1023.4
2023-02-11T05:30:38.221Z,1023.3
2023-02-11T05:31:54.515Z,1023.2
2023-02-11T05:33:10.714Z,1023.2
2023-02-11T05:34:26.785Z,1023.2
2023-02-11T05:35:43.086Z,1023.2
2023-02-11T05:36:59.149Z,1023.1
2023-02-11T05:38:15.343Z,1023.3
2023-02-11T05:39:31.529Z,1023.3
2023-02-11T05:40:47.719Z,1023.2
2023-02-11T05:42:02.926Z,1023.2
2023-02-11T05:43:19.110Z,1023.2
2023-02-11T05:44:35.436Z,1023.2
2023-02-11T05:45:51.620Z,1023.2
2023-02-11T05:47:07.689Z,1023.2
2023-02-11T05:48:23.997Z,1023.2
2023-02-11T05:49:40.054Z,1023.1
2023-02-11T05:50:56.253Z,1023.2
2023-02-11T05:52:12.556Z,1023.2
2023-02-11T05:53:28.636Z,1023.1
2023-02-11T05:54:44.813Z,1023.1
2023-02-11T05:56:01.116Z,1023.1
2023-02-11T05:57:17.206Z,1023.2
2023-02-11T05:58:32.413Z,1023.1
2023-02-11T05:59:48.601Z,1023.2
2023-02-11T06:01:04.791Z,1023.3
2023-02-11T06:02:20.961Z,1023.2
2023-02-11T06:03:37.286Z,1023.2
2023-02-11T06:04:53.462Z,1023.3
2023-02-11T06:06:09.537Z,1023.3
2023-02-11T06:07:25.719Z,1023.3
2023-02-11T06:08:42.034Z,1023.2
2023-02-11T06:09:58.100Z,1023.2
2023-02-11T06:11:14.402Z,1023.3
2023-02-11T06:12:30.481Z,1023.4
2023-02-11T06:13:46.672Z,1023.4
2023-02-11T06:15:01.877Z,1023.5
2023-02-11T06:16:18.066Z,1023.3
2023-02-11T06:17:34.260Z,1023.3
2023-02-11T06:18:50.564Z,1023.4
2023-02-11T06:20:06.738Z,1023.3
2023-02-11T06:21:22.822Z,1023.4
2023-02-11T06:22:39.131Z,1023.3
2023-02-11T06:23:55.206Z,1023.4
2023-02-11T06:25:11.385Z,1023.4
2023-02-11T06:26:27.684Z,1023.3
2023-02-11T06:27:43.764Z,1023.4
2023-02-11T06:28:59.950Z,1023.4
2023-02-11T06:30:16.157Z,1023.3
2023-02-11T06:31:31.474Z,1023.3
2023-02-11T06:32:47.547Z,1023.3
2023-02-11T06:34:03.840Z,1023.4
2023-02-11T06:35:19.927Z,1023.3
2023-02-11T06:36:36.220Z,1023.3
2023-02-11T06:37:52.305Z,1023.4
2023-02-11T06:39:08.479Z,1023.3
2023-02-11T06:40:24.670Z,1023.3
2023-02-11T06:41:40.864Z,1023.2
2023-02-11T06:42:57.052Z,1023.2
2023-02-11T06:44:13.237Z,1023.2
2023-02-11T06:45:29.533Z,1023.2
2023-02-11T06:46:45.627Z,1023.2
2023-02-11T06:48:00.936Z,1023.1
2023-02-11T06:49:17.117Z,1023.2
2023-02-11T06:50:33.000Z,1023.2
2023-02-11T06:51:49.388Z,1023.1
2023-02-11T06:53:05.582Z,1023.1
2023-02-11T06:54:21.765Z,1023.1
2023-02-11T06:55:37.954Z,1023.1
2023-02-11T06:56:54.255Z,1023.1
2023-02-11T06:58:10.347Z,1023.1
2023-02-11T06:59:26.539Z,1023.2
2023-02-11T07:00:42.708Z,1023.2
2023-02-11T07:01:58.915Z,1023.2
2023-02-11T07:03:15.094Z,1023.2
2023-02-11T07:04:30.391Z,1023.2
2023-02-11T07:05:46.479Z,1023.3
2023-02-11T07:07:02.681Z,1023.2
2023-02-11T07:08:18.858Z,1023.1
2023-02-11T07:09:35.038Z,1023.2
2023-02-11T07:10:51.328Z,1023.3
2023-02-11T07:12:07.530Z,1023.1
2023-02-11T07:13:23.599Z,1023.1
2023-02-11T07:14:39.804Z,1023.1
2023-02-11T07:15:55.976Z,1023.1
2023-02-11T07:17:12.180Z,1023.1
2023-02-11T07:18:28.362Z,1023
2023-02-11T07:19:44.640Z,1023
2023-02-11T07:20:59.756Z,1023.2
2023-02-11T07:22:15.926Z,1023.1
2023-02-11T07:23:32.116Z,1023.1
2023-02-11T07:24:48.309Z,1023.1
2023-02-11T07:26:04.497Z,1023
2023-02-11T07:27:20.780Z,1023.1
2023-02-11T07:28:36.964Z,1023
2023-02-11T07:29:53.064Z,1023
2023-02-11T07:31:09.245Z,1023.1
2023-02-11T07:32:25.441Z,1023
2023-02-11T07:33:41.720Z,1023.1
2023-02-11T07:34:57.910Z,1023
2023-02-11T07:36:13.989Z,1022.9
2023-02-11T07:37:29.204Z,1022.9
2023-02-11T07:38:45.386Z,1022.9
2023-02-11T07:40:01.579Z,1022.9
2023-02-11T07:41:17.771Z,1022.9
2023-02-11T07:42:34.052Z,1022.9
2023-02-11T07:43:50.134Z,1022.8
2023-02-11T07:45:06.327Z,1022.8
2023-02-11T07:46:22.522Z,1022.8
2023-02-11T07:47:38.703Z,1022.9
2023-02-11T07:48:54.884Z,1023
2023-02-11T07:50:11.171Z,1023
2023-02-11T07:51:27.360Z,1023
2023-02-11T07:52:43.444Z,1023
2023-02-11T07:53:58.655Z,1022.9
2023-02-11T07:55:14.932Z,1023.1
2023-02-11T07:56:31.017Z,1023
2023-02-11T07:57:47.305Z,1022.9
2023-02-11T07:59:03.494Z,1023
2023-02-11T08:00:19.581Z,1023
2023-02-11T08:01:35.773Z,1023.1
2023-02-11T08:02:51.956Z,1023
2023-02-11T08:04:08.150Z,1022.9
2023-02-11T08:05:24.438Z,1022.9
2023-02-11T08:06:40.632Z,1022.9
2023-02-11T08:07:56.723Z,1023
2023-02-11T08:09:12.897Z,1023
2023-02-11T08:10:28.106Z,1023
2023-02-11T08:11:44.292Z,1023.1
2023-02-11T08:13:00.558Z,1023.1
2023-02-11T08:14:16.750Z,1023.1
2023-02-11T08:15:32.860Z,1023.1
2023-02-11T08:16:49.041Z,1023.2
2023-02-11T08:18:05.232Z,1023.2
2023-02-11T08:19:21.409Z,1023.2
2023-02-11T08:20:37.682Z,1023.3
2023-02-11T08:21:53.783Z,1023.4
2023-02-11T08:23:09.975Z,1023.4
2023-02-11T08:24:26.168Z,1023.4
2023-02-11T08:25:42.351Z,1023.4
2023-02-11T08:26:57.561Z,1023.3
2023-02-11T08:28:13.823Z,1023.4
2023-02-11T08:29:29.940Z,1023.4
2023-02-11T08:30:46.199Z,1023.4
2023-02-11T08:32:02.306Z,1023.4
2023-02-11T08:33:18.490Z,1023.4
2023-02-11T08:34:34.770Z,1023.3
2023-02-11T08:35:50.946Z,1023.3
2023-02-11T08:37:07.054Z,1023.3
2023-02-11T08:38:23.251Z,1023.3
2023-02-11T08:39:39.438Z,1023.4
2023-02-11T08:40:55.626Z,1023.4
2023-02-11T08:42:11.808Z,1023.4
2023-02-11T08:43:27.092Z,1023.4
2023-02-11T08:44:43.203Z,1023.3
2023-02-11T08:45:59.380Z,1023.4
2023-02-11T08:47:15.650Z,1023.4
2023-02-11T08:48:31.833Z,1023.4
2023-02-11T08:49:47.957Z,1023.4
2023-02-11T08:51:04.206Z,1023.4
2023-02-11T08:52:20.319Z,1023.4
2023-02-11T08:53:36.518Z,1023.3
2023-02-11T08:54:52.694Z,1023.3
2023-02-11T08:56:08.876Z,1023.3
2023-02-11T08:57:25.077Z,1023.2
2023-02-11T08:58:41.260Z,1023.1
2023-02-11T08:59:56.473Z,1023.2
2023-02-11T09:01:12.728Z,1023.1
2023-02-11T09:02:28.840Z,1023.1
2023-02-11T09:03:45.023Z,1023.1
2023-02-11T09:05:01.214Z,1023.1
2023-02-11T09:06:17.481Z,1023.1
2023-02-11T09:07:33.593Z,1023.1
2023-02-11T09:08:49.770Z,1023.1
2023-02-11T09:10:05.967Z,1023.1
2023-02-11T09:11:22.145Z,1023
2023-02-11T09:12:38.336Z,1023.1
2023-02-11T09:13:54.591Z,1023.1
2023-02-11T09:15:10.703Z,1023.2
2023-02-11T09:16:25.925Z,1023.2
2023-02-11T09:17:42.112Z,1023.2
2023-02-11T09:18:58.362Z,1023.2
2023-02-11T09:20:14.547Z,1023.2
2023-02-11T09:21:30.739Z,1023.2
2023-02-11T09:22:46.849Z,1023.1
2023-02-11T09:24:02.052Z,1023.1
2023-02-11T09:25:18.243Z,1023.1
2023-02-11T09:26:34.436Z,1023.1
2023-02-11T09:27:50.618Z,1023.2
2023-02-11T09:29:06.804Z,1023.3
2023-02-11T09:30:22.989Z,1023.4
2023-02-11T09:31:39.180Z,1023.4
2023-02-11T09:32:55.374Z,1023.4
2023-02-11T09:34:11.627Z,1023.3
2023-02-11T09:35:27.820Z,1023.3
2023-02-11T09:36:44.010Z,1023.3
2023-02-11T09:38:00.129Z,1023.4
2023-02-11T09:39:16.301Z,1023.4
2023-02-11T09:40:31.584Z,1023.4
2023-02-11T09:41:47.704Z,1023.3
2023-02-11T09:43:03.889Z,1023.4
2023-02-11T09:44:20.150Z,1023.4
2023-02-11T09:45:36.260Z,1023.5
2023-02-11T09:46:52.451Z,1023.4
2023-02-11T09:48:08.635Z,1023.5
2023-02-11T09:49:24.828Z,1023.5
2023-02-11T09:50:41.014Z,1023.5
2023-02-11T09:51:57.270Z,1023.5
2023-02-11T09:53:13.444Z,1023.6
2023-02-11T09:54:29.574Z,1023.5
2023-02-11T09:55:45.764Z,1023.5
2023-02-11T09:57:00.960Z,1023.5
2023-02-11T09:58:17.149Z,1023.6
2023-02-11T10:00:49.525Z,1023.6
2023-02-11T10:02:05.716Z,1023.7
2023-02-11T10:03:21.899Z,1023.8
2023-02-11T10:04:38.091Z,1023.7
2023-02-11T10:05:54.278Z,1023.7
2023-02-11T10:07:10.535Z,1023.7
2023-02-11T10:08:26.660Z,1023.7
2023-02-11T10:09:42.832Z,1023.7
2023-02-11T10:10:59.020Z,1023.7
2023-02-11T10:12:15.220Z,1023.7
2023-02-11T10:13:30.428Z,1023.8
2023-02-11T10:14:46.666Z,1023.7
2023-02-11T10:16:02.787Z,1023.7
2023-02-11T10:17:19.038Z,1023.7
2023-02-11T10:18:35.161Z,1023.7
2023-02-11T10:19:51.347Z,1023.8
2023-02-11T10:21:07.602Z,1023.8
2023-02-11T10:22:23.798Z,1023.8
2023-02-11T10:23:39.928Z,1023.8
2023-02-11T10:24:56.112Z,1023.7
2023-02-11T10:26:12.300Z,1023.7
2023-02-11T10:27:28.545Z,1023.8
2023-02-11T10:28:44.717Z,1023.8
2023-02-11T10:29:59.927Z,1023.9
2023-02-11T10:31:16.062Z,1023.8
2023-02-11T10:32:32.297Z,1023.9
2023-02-11T10:33:48.434Z,1023.9
2023-02-11T10:35:04.687Z,1023.9
2023-02-11T10:36:20.805Z,1023.9
2023-02-11T10:37:37.006Z,1023.9
2023-02-11T10:38:53.231Z,1023.8
2023-02-11T10:40:09.366Z,1023.8
2023-02-11T10:41:25.565Z,1023.7
2023-02-11T10:42:41.805Z,1023.6
2023-02-11T10:43:57.934Z,1023.6
2023-02-11T10:45:14.183Z,1023.6
2023-02-11T10:46:29.330Z,1023.6
2023-02-11T10:47:45.505Z,1023.6
2023-02-11T10:49:01.743Z,1023.5
2023-02-11T10:50:17.889Z,1023.5
2023-02-11T10:51:34.064Z,1023.5
2023-02-11T10:52:50.311Z,1023.5
2023-02-11T10:54:06.453Z,1023.6
2023-02-11T10:55:22.686Z,1023.6
2023-02-11T10:56:38.822Z,1023.6
2023-02-11T10:57:55.055Z,1023.7
2023-02-11T10:59:11.208Z,1023.6
2023-02-11T11:00:27.447Z,1023.6
2023-02-11T11:01:43.566Z,1023.6
2023-02-11T11:02:58.780Z,1023.6
2023-02-11T11:04:14.970Z,1023.5
2023-02-11T11:05:31.159Z,1023.5
2023-02-11T11:06:47.000Z,1023.5
2023-02-11T11:08:03.523Z,1023.4
2023-02-11T11:09:19.721Z,1023.3
2023-02-11T11:10:35.893Z,1023.4
2023-02-11T11:11:52.099Z,1023.4
2023-02-11T11:13:08.273Z,1023.4
2023-02-11T11:14:24.512Z,1023.4
2023-02-11T11:15:40.698Z,1023.4
2023-02-11T11:16:56.850Z,1023.3
2023-02-11T11:18:13.021Z,1023.3
2023-02-11T11:19:28.223Z,1023.3
2023-02-11T11:20:44.416Z,1023.4
2023-02-11T11:22:00.656Z,1023.4
2023-02-11T11:23:16.836Z,1023.4
2023-02-11T11:24:32.983Z,1023.3
2023-02-11T11:25:49.168Z,1023.4
2023-02-11T11:27:05.399Z,1023.4
2023-02-11T11:28:21.547Z,1023.3
2023-02-11T11:29:37.726Z,1023.3
2023-02-11T11:30:53.967Z,1023.3
2023-02-11T11:32:10.097Z,1023.3
2023-02-11T11:33:26.296Z,1023.3
2023-02-11T11:34:42.476Z,1023.4
2023-02-11T11:35:57.677Z,1023.4
2023-02-11T11:37:13.867Z,1023.5
2023-02-11T11:38:30.052Z,1023.4
2023-02-11T11:39:46.247Z,1023.4
2023-02-11T11:41:02.435Z,1023.4
2023-02-11T11:42:18.616Z,1023.5
2023-02-11T11:43:34.803Z,1023.4
2023-02-11T11:44:50.997Z,1023.4
2023-02-11T11:46:07.234Z,1023.5
2023-02-11T11:47:23.382Z,1023.5
2023-02-11T11:48:39.610Z,1023.5
2023-02-11T11:49:55.742Z,1023.4
2023-02-11T11:51:11.976Z,1023.4
2023-02-11T11:52:27.145Z,1023.3
2023-02-11T11:53:43.321Z,1023.3
2023-02-11T11:54:59.506Z,1023.3
2023-02-11T11:56:15.704Z,1023.4
2023-02-11T11:57:31.897Z,1023.4
2023-02-11T11:58:48.075Z,1023.4
2023-02-11T12:00:04.261Z,1023.4
2023-02-11T12:01:20.500Z,1023.4
2023-02-11T12:02:36.686Z,1023.4
2023-02-11T12:03:52.822Z,1023.4
2023-02-11T12:05:09.057Z,1023.4
2023-02-11T12:06:25.206Z,1023.4
2023-02-11T12:07:41.392Z,1023.4
2023-02-11T12:08:56.620Z,1023.3
2023-02-11T12:10:12.781Z,1023.3
2023-02-11T12:11:28.967Z,1023.3
2023-02-11T12:12:45.151Z,1023.3
2023-02-11T12:14:01.000Z,1023.3
2023-02-11T12:15:17.529Z,1023.4
2023-02-11T12:16:33.720Z,1023.4
2023-02-11T12:17:49.897Z,1023.3
2023-02-11T12:19:06.083Z,1023.2
2023-02-11T12:20:22.284Z,1023.3
2023-02-11T12:21:38.470Z,1023.3
2023-02-11T12:22:54.651Z,1023.4
2023-02-11T12:24:10.873Z,1023.2
2023-02-11T12:25:26.035Z,1023.3
2023-02-11T12:26:42.239Z,1023.3
2023-02-11T12:27:58.426Z,1023.2
2023-02-11T12:29:14.615Z,1023.3
2023-02-11T12:30:30.835Z,1023.3
2023-02-11T12:31:47.018Z,1023.2
2023-02-11T12:33:03.179Z,1023.2
2023-02-11T12:34:19.355Z,1023.3
2023-02-11T12:35:35.543Z,1023.3
2023-02-11T12:36:51.734Z,1023.4
2023-02-11T12:38:07.925Z,1023.4
2023-02-11T12:39:24.101Z,1023.4
2023-02-11T12:40:40.335Z,1023.4
2023-02-11T12:41:55.504Z,1023.3
2023-02-11T12:43:11.716Z,1023.3
2023-02-11T12:44:27.869Z,1023.2
2023-02-11T12:45:44.058Z,1023.3
2023-02-11T12:47:00.278Z,1023.3
2023-02-11T12:48:16.432Z,1023.3
2023-02-11T12:49:32.628Z,1023.3
2023-02-11T12:50:48.837Z,1023.3
2023-02-11T12:52:04.998Z,1023.2
2023-02-11T12:53:21.186Z,1023.3
2023-02-11T12:54:37.403Z,1023.3
2023-02-11T12:55:53.565Z,1023.4
2023-02-11T12:57:09.782Z,1023.4
2023-02-11T12:58:24.954Z,1023.4
2023-02-11T12:59:41.135Z,1023.4
2023-02-11T13:00:57.332Z,1023.4
2023-02-11T13:02:13.514Z,1023.4
2023-02-11T13:03:29.701Z,1023.4
2023-02-11T13:04:45.924Z,1023.4
2023-02-11T13:06:02.070Z,1023.4
2023-02-11T13:07:18.267Z,1023.4
2023-02-11T13:08:34.476Z,1023.6
2023-02-11T13:09:50.671Z,1023.6
2023-02-11T13:11:06.861Z,1023.6
2023-02-11T13:12:23.016Z,1023.5
2023-02-11T13:13:39.209Z,1023.6
2023-02-11T13:14:54.410Z,1023.5
2023-02-11T13:16:10.587Z,1023.5
2023-02-11T13:17:26.782Z,1023.5
2023-02-11T13:18:42.974Z,1023.4
2023-02-11T13:19:59.157Z,1023.6
2023-02-11T13:21:15.366Z,1023.5
2023-02-11T13:22:31.522Z,1023.5
2023-02-11T13:23:47.714Z,1023.6
2023-02-11T13:25:03.921Z,1023.5
2023-02-11T13:26:20.100Z,1023.6
2023-02-11T13:27:36.284Z,1023.6
2023-02-11T13:28:52.475Z,1023.6
2023-02-11T13:30:08.648Z,1023.7
2023-02-11T13:31:23.868Z,1023.7
2023-02-11T13:32:40.065Z,1023.7
2023-02-11T13:33:56.252Z,1023.8
2023-02-11T13:35:12.430Z,1023.7
2023-02-11T13:36:28.606Z,1023.8
2023-02-11T13:37:44.798Z,1023.7
2023-02-11T13:39:00.002Z,1023.8
2023-02-11T13:40:16.186Z,1023.8
2023-02-11T13:41:32.387Z,1023.7
2023-02-11T13:42:48.577Z,1023.9
2023-02-11T13:44:04.757Z,1023.9
2023-02-11T13:45:20.946Z,1023.9
2023-02-11T13:46:37.131Z,1023.8
2023-02-11T13:47:53.330Z,1023.8
2023-02-11T13:49:09.504Z,1023.9
2023-02-11T13:50:25.686Z,1024
2023-02-11T13:51:41.873Z,1023.9
2023-02-11T13:52:58.083Z,1023.9
2023-02-11T13:54:14.265Z,1023.9
2023-02-11T13:55:29.477Z,1023.8
2023-02-11T13:56:45.652Z,1023.9
2023-02-11T13:58:01.853Z,1023.8
2023-02-11T13:59:18.026Z,1023.8
2023-02-11T14:00:34.227Z,1023.9
2023-02-11T14:01:50.399Z,1023.9
2023-02-11T14:03:06.612Z,1023.9
2023-02-11T14:04:22.780Z,1023.9
2023-02-11T14:05:38.968Z,1023.9
2023-02-11T14:06:55.147Z,1023.9
2023-02-11T14:08:11.324Z,1023.9
2023-02-11T14:09:27.530Z,1023.9
2023-02-11T14:10:43.723Z,1023.9
2023-02-11T14:11:58.932Z,1023.8
2023-02-11T14:13:15.092Z,1023.9
2023-02-11T14:14:31.284Z,1023.9
2023-02-11T14:15:47.478Z,1023.9
2023-02-11T14:17:03.655Z,1023.9
2023-02-11T14:18:19.870Z,1023.8
2023-02-11T14:19:36.037Z,1023.8
2023-02-11T14:20:52.228Z,1023.8
2023-02-11T14:22:08.416Z,1023.9
2023-02-11T14:23:24.614Z,1023.9
2023-02-11T14:24:40.781Z,1023.8
2023-02-11T14:25:56.984Z,1023.8
2023-02-11T14:27:13.164Z,1023.8
2023-02-11T14:28:28.364Z,1023.9
2023-02-11T14:29:44.557Z,1023.8
2023-02-11T14:31:00.748Z,1023.9
2023-02-11T14:32:16.922Z,1023.9
2023-02-11T14:33:33.125Z,1023.9
2023-02-11T14:34:49.301Z,1023.9
2023-02-11T14:36:05.480Z,1023.9
2023-02-11T14:37:21.684Z,1023.9
2023-02-11T14:38:37.876Z,1023.9
2023-02-11T14:39:54.046Z,1023.9
2023-02-11T14:41:10.252Z,1023.9
2023-02-11T14:42:26.422Z,1023.9
2023-02-11T14:43:42.609Z,1023.9
2023-02-11T14:44:57.814Z,1023.9
2023-02-11T14:46:13.998Z,1023.9
2023-02-11T14:47:30.200Z,1023.9
2023-02-11T14:48:46.628Z,1023.9
2023-02-11T14:50:02.565Z,1024
2023-02-11T14:51:18.756Z,1024
2023-02-11T14:52:34.944Z,1024
2023-02-11T14:53:51.133Z,1024
2023-02-11T14:55:07.312Z,1024
2023-02-11T14:56:23.745Z,1024.1
2023-02-11T14:57:39.696Z,1024.1
2023-02-11T14:58:55.885Z,1024
2023-02-11T15:00:12.070Z,1024.1
2023-02-11T15:01:27.511Z,1024
2023-02-11T15:02:43.702Z,1024.1
2023-02-11T15:03:59.894Z,1024.1
2023-02-11T15:05:15.825Z,1024.1
2023-02-11T15:06:32.030Z,1024.1
2023-02-11T15:07:48.207Z,1024.1
2023-02-11T15:09:04.391Z,1024.3
2023-02-11T15:10:20.577Z,1024.3
2023-02-11T15:11:37.019Z,1024.3
2023-02-11T15:12:53.201Z,1024.5
2023-02-11T15:14:09.154Z,1024.3
2023-02-11T15:15:25.570Z,1024.4
2023-02-11T15:16:41.520Z,1024.4
2023-02-11T15:17:56.716Z,1024.4
2023-02-11T15:19:13.146Z,1024.4
2023-02-11T15:20:29.087Z,1024.4
2023-02-11T15:21:45.277Z,1024.4
2023-02-11T15:23:01.477Z,1024.5
2023-02-11T15:24:17.654Z,1024.5
2023-02-11T15:25:33.855Z,1024.4
2023-02-11T15:26:50.281Z,1024.5
2023-02-11T15:28:06.219Z,1024.5
2023-02-11T15:29:22.411Z,1024.5
2023-02-11T15:30:38.594Z,1024.5
2023-02-11T15:31:55.031Z,1024.5
2023-02-11T15:33:10.981Z,1024.5
2023-02-11T15:34:26.407Z,1024.5
2023-02-11T15:35:42.355Z,1024.6
2023-02-11T15:36:58.543Z,1024.6
2023-02-11T15:38:14.741Z,1024.6
2023-02-11T15:39:31.165Z,1024.7
2023-02-11T15:40:47.113Z,1024.7
2023-02-11T15:42:03.537Z,1024.6
2023-02-11T15:43:19.713Z,1024.6
2023-02-11T15:44:35.676Z,1024.6
2023-02-11T15:45:51.859Z,1024.7
2023-02-11T15:47:08.274Z,1024.6
2023-02-11T15:48:24.243Z,1024.6
2023-02-11T15:49:40.652Z,1024.6
2023-02-11T15:50:55.638Z,1024.5
2023-02-11T15:52:11.813Z,1024.6
2023-02-11T15:53:28.003Z,1024.5
2023-02-11T15:54:44.187Z,1024.5
2023-02-11T15:56:00.372Z,1024.5